createdAt,value
2022-09-20T00:01:33.453Z,2.60
2022-09-20T00:04:05.540Z,2.70
2022-09-20T00:06:36.080Z,2.90
2022-09-20T00:09:05.611Z,2.17
2022-09-20T00:11:35.719Z,3.37
2022-09-20T00:14:08.382Z,2.13
2022-09-20T00:16:38.997Z,3.33
2022-09-20T00:19:08.229Z,2.83
2022-09-20T00:21:38.213Z,2.87
2022-09-20T00:24:06.965Z,2.47
2022-09-20T00:26:35.277Z,2.63
2022-09-20T00:29:03.719Z,2.87
2022-09-20T00:31:31.936Z,2.37
2022-09-20T00:34:17.852Z,2.93
2022-09-20T00:36:47.457Z,2.33
2022-09-20T00:39:16.859Z,2.60
2022-09-20T00:41:46.196Z,3.13
2022-09-20T00:44:43.180Z,2.72
2022-09-20T00:47:18.996Z,2.17
2022-09-20T00:49:47.820Z,2.20
2022-09-20T00:52:17.966Z,2.33
2022-09-20T00:54:47.386Z,2.17
2022-09-20T00:57:15.488Z,2.30
2022-09-20T00:59:46.436Z,2.37
2022-09-20T01:02:19.107Z,2.10
2022-09-20T01:04:48.740Z,2.27
2022-09-20T01:07:22.345Z,1.83
2022-09-20T01:09:50.656Z,1.93
2022-09-20T01:12:21.475Z,1.37
2022-09-20T01:14:52.508Z,2.10
2022-09-20T01:17:25.077Z,1.97
2022-09-20T01:20:09.052Z,1.90
2022-09-20T01:22:48.977Z,1.70
2022-09-20T01:25:19.200Z,1.70
2022-09-20T01:27:50.212Z,2.00
2022-09-20T01:30:20.944Z,2.03
2022-09-20T01:33:01.498Z,2.00
2022-09-20T01:35:31.065Z,2.33
2022-09-20T01:38:13.201Z,2.30
2022-09-20T01:40:48.960Z,3.37
2022-09-20T01:43:25.491Z,2.87
2022-09-20T01:45:54.570Z,2.13
2022-09-20T01:48:31.194Z,2.90
2022-09-20T01:51:26.163Z,2.90
2022-09-20T01:54:22.659Z,3.27
2022-09-20T01:57:28.963Z,2.37
2022-09-20T02:00:07.028Z,2.73
2022-09-20T02:03:05.832Z,2.33
2022-09-20T02:06:02.627Z,2.87
2022-09-20T02:09:00.699Z,2.70
2022-09-20T02:11:37.971Z,3.20
2022-09-20T02:14:22.473Z,3.00
2022-09-20T02:16:54.703Z,3.23
2022-09-20T02:19:35.194Z,2.83
2022-09-20T02:22:28.180Z,2.40
2022-09-20T02:25:08.381Z,3.00
2022-09-20T02:27:45.144Z,2.83
2022-09-20T02:30:23.286Z,3.40
2022-09-20T02:33:19.137Z,3.57
2022-09-20T02:36:02.025Z,3.00
2022-09-20T02:38:43.669Z,3.60
2022-09-20T02:41:48.586Z,3.47
2022-09-20T02:44:26.207Z,2.90
2022-09-20T02:47:01.983Z,3.00
2022-09-20T02:49:40.106Z,2.73
2022-09-20T02:52:16.630Z,3.50
2022-09-20T02:54:53.245Z,3.30
2022-09-20T02:57:27.959Z,3.27
2022-09-20T03:00:01.816Z,3.40
2022-09-20T03:02:38.541Z,2.90
2022-09-20T03:05:15.437Z,2.57
2022-09-20T03:07:55.689Z,2.70
2022-09-20T03:10:29.085Z,2.93
2022-09-20T03:13:18.553Z,3.07
2022-09-20T03:15:58.460Z,2.73
2022-09-20T03:18:35.725Z,2.93
2022-09-20T03:21:17.914Z,3.57
2022-09-20T03:23:56.778Z,2.60
2022-09-20T03:26:35.506Z,3.83
2022-09-20T03:29:09.157Z,3.43
2022-09-20T03:32:00.000Z,3.23
2022-09-20T03:34:46.842Z,3.00
2022-09-20T03:37:30.858Z,3.10
2022-09-20T03:40:25.700Z,4.03
2022-09-20T03:42:54.680Z,4.10
2022-09-20T03:45:35.492Z,3.33
2022-09-20T03:48:37.011Z,3.73
2022-09-20T03:51:15.249Z,3.50
2022-09-20T03:54:23.994Z,3.53
2022-09-20T03:57:30.079Z,3.00
2022-09-20T04:00:23.164Z,3.80
2022-09-20T04:03:21.753Z,3.00
2022-09-20T04:06:01.889Z,3.17
2022-09-20T04:08:49.098Z,2.90
2022-09-20T04:11:26.993Z,3.33
2022-09-20T04:14:02.027Z,3.00
2022-09-20T04:16:41.867Z,3.50
2022-09-20T04:19:16.311Z,3.03
2022-09-20T04:21:52.814Z,3.20
2022-09-20T04:24:27.509Z,3.27
2022-09-20T04:27:01.617Z,3.00
2022-09-20T04:29:38.927Z,2.43
2022-09-20T04:32:17.432Z,2.77
2022-09-20T04:35:07.045Z,3.03
2022-09-20T04:37:39.703Z,3.00
2022-09-20T04:40:22.696Z,3.00
2022-09-20T04:43:30.477Z,2.30
2022-09-20T04:46:26.544Z,3.93
2022-09-20T04:49:37.710Z,2.53
2022-09-20T04:52:35.528Z,2.70
2022-09-20T04:55:31.738Z,3.50
2022-09-20T04:58:36.240Z,3.30
2022-09-20T05:01:55.812Z,3.03
2022-09-20T05:05:01.816Z,3.30
2022-09-20T05:08:00.498Z,3.03
2022-09-20T05:11:10.942Z,3.03
2022-09-20T05:13:57.135Z,4.20
2022-09-20T05:16:37.822Z,3.67
2022-09-20T05:19:23.331Z,3.50
2022-09-20T05:22:07.331Z,3.20
2022-09-20T05:25:06.519Z,4.20
2022-09-20T05:27:44.733Z,3.93
2022-09-20T05:30:33.617Z,3.50
2022-09-20T05:33:12.350Z,2.63
2022-09-20T05:35:49.858Z,2.83
2022-09-20T05:38:27.511Z,3.23
2022-09-20T05:41:10.262Z,3.47
2022-09-20T05:43:49.166Z,3.37
2022-09-20T05:46:24.095Z,3.70
2022-09-20T05:48:58.299Z,3.20
2022-09-20T05:51:43.241Z,3.13
2022-09-20T05:54:30.599Z,2.43
2022-09-20T05:57:16.200Z,2.47
2022-09-20T05:59:57.789Z,3.03
2022-09-20T06:02:38.074Z,3.10
2022-09-20T06:05:14.926Z,3.20
2022-09-20T06:08:09.788Z,3.63
2022-09-20T06:10:47.800Z,3.47
2022-09-20T06:13:36.748Z,2.77
2022-09-20T06:16:06.828Z,3.03
2022-09-20T06:18:41.629Z,2.97
2022-09-20T06:21:22.540Z,3.80
2022-09-20T06:23:57.935Z,2.70
2022-09-20T06:26:29.741Z,3.80
2022-09-20T06:29:01.462Z,4.00
2022-09-20T06:31:29.625Z,3.30
2022-09-20T06:34:01.033Z,3.60
2022-09-20T06:36:50.121Z,2.80
2022-09-20T06:39:46.319Z,3.47
2022-09-20T06:42:14.505Z,3.73
2022-09-20T06:44:43.349Z,3.20
2022-09-20T06:47:12.318Z,2.80
2022-09-20T06:49:42.314Z,2.87
2022-09-20T06:52:15.428Z,2.90
2022-09-20T06:54:46.553Z,3.03
2022-09-20T06:57:17.668Z,2.80
2022-09-20T06:59:45.806Z,2.73
2022-09-20T07:02:14.075Z,2.50
2022-09-20T07:04:43.591Z,3.63
2022-09-20T07:07:18.304Z,3.07
2022-09-20T07:09:47.917Z,3.00
2022-09-20T07:12:15.998Z,3.30
2022-09-20T07:14:44.384Z,2.90
2022-09-20T07:17:13.279Z,3.10
2022-09-20T07:19:41.418Z,3.63
2022-09-20T07:22:09.613Z,2.73
2022-09-20T07:24:37.698Z,2.70
2022-09-20T07:27:07.478Z,3.30
2022-09-20T07:29:36.299Z,2.73
2022-09-20T07:32:04.966Z,2.83
2022-09-20T07:34:33.061Z,2.70
2022-09-20T07:37:01.277Z,3.10
2022-09-20T07:39:29.429Z,2.23
2022-09-20T07:41:57.604Z,2.10
2022-09-20T07:44:27.972Z,2.27
2022-09-20T07:46:59.082Z,2.47
2022-09-20T07:49:28.671Z,2.37
2022-09-20T07:51:57.012Z,2.47
2022-09-20T07:54:27.210Z,2.77
2022-09-20T07:56:55.597Z,3.03
2022-09-20T07:59:24.301Z,2.77
2022-09-20T08:01:53.860Z,2.83
2022-09-20T08:04:21.986Z,2.20
2022-09-20T08:06:50.042Z,2.50
2022-09-20T08:09:18.155Z,2.10
2022-09-20T08:11:47.375Z,2.80
2022-09-20T08:14:16.919Z,2.97
2022-09-20T08:16:47.613Z,2.57
2022-09-20T08:19:19.684Z,2.33
2022-09-20T08:21:48.731Z,2.57
2022-09-20T08:24:17.529Z,2.30
2022-09-20T08:26:45.978Z,2.70
2022-09-20T08:29:15.223Z,2.47
2022-09-20T08:31:45.921Z,1.87
2022-09-20T08:34:15.150Z,2.40
2022-09-20T08:36:47.000Z,2.27
2022-09-20T08:42:14.182Z,2.70
2022-09-20T08:44:57.895Z,2.80
2022-09-20T08:47:29.661Z,3.63
2022-09-20T08:50:00.727Z,3.47
2022-09-20T08:52:36.634Z,3.23
2022-09-20T08:55:15.013Z,3.67
2022-09-20T08:57:43.529Z,2.90
2022-09-20T09:00:18.850Z,2.53
2022-09-20T09:02:47.905Z,2.43
2022-09-20T09:05:33.526Z,3.03
2022-09-20T09:08:07.297Z,3.30
2022-09-20T09:10:42.888Z,2.53
2022-09-20T09:13:19.487Z,2.53
2022-09-20T09:15:53.962Z,2.80
2022-09-20T09:18:22.079Z,2.23
2022-09-20T09:20:51.857Z,2.47
2022-09-20T09:23:29.185Z,2.30
2022-09-20T09:25:57.718Z,2.00
2022-09-20T09:28:31.463Z,2.00
2022-09-20T09:31:16.007Z,2.37
2022-09-20T09:33:47.406Z,1.70
2022-09-20T09:36:18.679Z,2.67
2022-09-20T09:38:48.464Z,2.80
2022-09-20T09:41:26.502Z,2.50
2022-09-20T09:44:01.861Z,2.80
2022-09-20T09:46:33.516Z,2.30
2022-09-20T09:49:14.120Z,2.47
2022-09-20T09:51:45.054Z,3.23
2022-09-20T09:54:19.795Z,2.77
2022-09-20T09:57:00.174Z,1.77
2022-09-20T09:59:42.562Z,2.50
2022-09-20T10:02:31.650Z,1.40
2022-09-20T10:05:05.358Z,1.83
2022-09-20T10:07:40.970Z,2.17
2022-09-20T10:10:24.423Z,2.60
2022-09-20T10:13:03.355Z,1.20
2022-09-20T10:15:36.673Z,1.20
2022-09-20T10:18:19.093Z,1.50
2022-09-20T10:21:11.661Z,1.90
2022-09-20T10:24:03.547Z,1.80
2022-09-20T10:26:49.372Z,1.67
2022-09-20T10:29:27.566Z,2.10
2022-09-20T10:32:05.418Z,2.27
2022-09-20T10:34:58.722Z,1.70
2022-09-20T10:37:34.996Z,2.00
2022-09-20T10:40:14.051Z,1.77
2022-09-20T10:43:07.505Z,2.03
2022-09-20T10:48:35.435Z,1.70
2022-09-20T10:51:12.602Z,1.63
2022-09-20T10:53:48.054Z,2.70
2022-09-20T10:56:27.706Z,2.40
2022-09-20T10:59:20.474Z,2.53
2022-09-20T11:01:57.855Z,2.53
2022-09-20T11:04:44.683Z,2.10
2022-09-20T11:07:18.810Z,1.90
2022-09-20T11:09:51.966Z,2.27
2022-09-20T11:12:26.946Z,2.13
2022-09-20T11:15:00.860Z,2.30
2022-09-20T11:17:35.257Z,1.73
2022-09-20T11:20:12.042Z,1.80
2022-09-20T11:22:44.344Z,2.67
2022-09-20T11:25:21.537Z,1.73
2022-09-20T11:27:56.116Z,2.50
2022-09-20T11:30:25.735Z,2.10
2022-09-20T11:32:58.074Z,2.27
2022-09-20T11:35:34.522Z,2.20
2022-09-20T11:38:12.479Z,1.67
2022-09-20T11:40:46.829Z,1.53
2022-09-20T11:43:15.891Z,2.03
2022-09-20T11:45:48.535Z,1.83
2022-09-20T11:48:23.127Z,1.60
2022-09-20T11:51:21.092Z,1.80
2022-09-20T11:54:06.341Z,1.47
2022-09-20T11:56:35.289Z,1.50
2022-09-20T11:59:05.785Z,1.27
2022-09-20T12:01:37.428Z,1.47
2022-09-20T12:07:08.296Z,1.37
2022-09-20T12:09:40.560Z,2.60
2022-09-20T12:12:41.675Z,2.70
2022-09-20T12:15:26.542Z,2.87
2022-09-20T12:18:37.837Z,2.00
2022-09-20T12:21:17.538Z,1.93
2022-09-20T12:24:10.625Z,1.73
2022-09-20T12:26:42.662Z,1.80
2022-09-20T12:29:57.374Z,1.70
2022-09-20T12:33:01.095Z,1.87
2022-09-20T12:36:26.726Z,1.40
2022-09-20T12:39:02.051Z,2.00
2022-09-20T12:41:45.817Z,1.70
2022-09-20T12:44:31.251Z,1.40
2022-09-20T12:47:01.902Z,1.77
2022-09-20T12:49:58.451Z,1.70
2022-09-20T12:52:56.254Z,1.60
2022-09-20T12:55:50.154Z,1.93
2022-09-20T12:58:25.290Z,1.57
2022-09-20T13:01:31.086Z,1.17
2022-09-20T13:04:38.743Z,1.77
2022-09-20T13:07:42.759Z,2.20
2022-09-20T13:10:39.319Z,1.70
2022-09-20T13:13:31.796Z,1.83
2022-09-20T13:16:02.286Z,1.70
2022-09-20T13:18:31.193Z,1.23
2022-09-20T13:21:03.522Z,1.37
2022-09-20T13:23:34.187Z,1.50
2022-09-20T13:26:05.165Z,2.00
2022-09-20T13:28:38.478Z,1.67
2022-09-20T13:31:23.819Z,1.80
2022-09-20T13:33:52.413Z,1.30
2022-09-20T13:36:26.553Z,1.53
2022-09-20T13:38:56.911Z,2.27
2022-09-20T13:41:31.373Z,1.57
2022-09-20T13:44:00.174Z,1.83
2022-09-20T13:46:32.078Z,1.80
2022-09-20T13:49:14.368Z,2.00
2022-09-20T13:51:42.470Z,1.40
2022-09-20T13:54:27.419Z,1.20
2022-09-20T13:56:59.854Z,1.60
2022-09-20T13:59:34.451Z,1.40
2022-09-20T14:02:02.878Z,1.57
2022-09-20T14:04:32.521Z,1.83
2022-09-20T14:07:02.441Z,1.67
2022-09-20T14:09:35.165Z,1.80
2022-09-20T14:12:06.861Z,1.60
2022-09-20T14:14:36.298Z,1.57
2022-09-20T14:17:08.901Z,1.70
2022-09-20T14:19:41.836Z,2.63
2022-09-20T14:22:25.685Z,2.10
2022-09-20T14:25:02.602Z,1.83
2022-09-20T14:27:32.689Z,2.30
2022-09-20T14:30:01.069Z,1.70
2022-09-20T14:32:42.489Z,2.93
2022-09-20T14:35:17.472Z,1.80
2022-09-20T14:37:48.879Z,1.90
2022-09-20T14:40:25.793Z,1.97
2022-09-20T14:42:58.561Z,2.10
2022-09-20T14:45:30.791Z,1.70
2022-09-20T14:48:06.878Z,2.30
2022-09-20T14:50:40.290Z,2.47
2022-09-20T14:53:26.709Z,2.70
2022-09-20T14:56:00.900Z,2.60
2022-09-20T14:58:31.208Z,2.20
2022-09-20T15:01:05.100Z,2.10
2022-09-20T15:03:36.256Z,2.87
2022-09-20T15:06:04.635Z,2.57
2022-09-20T15:08:35.302Z,2.27
2022-09-20T15:11:03.721Z,2.03
2022-09-20T15:13:33.124Z,4.30
2022-09-20T15:16:01.423Z,2.60
2022-09-20T15:18:34.641Z,3.33
2022-09-20T15:21:02.753Z,3.03
2022-09-20T15:23:31.062Z,2.90
2022-09-20T15:26:00.107Z,3.27
2022-09-20T15:28:28.512Z,3.23
2022-09-20T15:30:59.230Z,2.60
2022-09-20T15:33:31.209Z,2.10
2022-09-20T15:36:02.081Z,3.67
2022-09-20T15:38:30.233Z,2.00
2022-09-20T15:41:01.705Z,2.23
2022-09-20T15:43:30.283Z,2.80
2022-09-20T15:46:01.927Z,2.40
2022-09-20T15:48:31.656Z,2.30
2022-09-20T15:51:04.634Z,1.70
2022-09-20T15:53:35.046Z,2.87
2022-09-20T15:56:05.220Z,2.13
2022-09-20T15:58:36.461Z,2.73
2022-09-20T16:01:08.970Z,2.97
2022-09-20T16:03:37.706Z,2.73
2022-09-20T16:06:08.123Z,2.93
2022-09-20T16:08:37.938Z,2.37
2022-09-20T16:11:07.862Z,3.53
2022-09-20T16:13:37.671Z,3.03
2022-09-20T16:16:08.539Z,2.10
2022-09-20T16:18:54.897Z,2.47
2022-09-20T16:21:23.022Z,1.70
2022-09-20T16:23:53.054Z,2.47
2022-09-20T16:26:23.286Z,2.53
2022-09-20T16:28:51.814Z,1.80
2022-09-20T16:31:34.591Z,2.30
2022-09-20T16:34:03.958Z,2.70
2022-09-20T16:36:32.296Z,2.60
2022-09-20T16:39:01.180Z,3.37
2022-09-20T16:41:30.989Z,3.30
2022-09-20T16:43:59.065Z,2.70
2022-09-20T16:46:28.223Z,3.63
2022-09-20T16:49:00.882Z,4.27
2022-09-20T16:51:33.292Z,2.83
2022-09-20T16:54:03.898Z,3.07
2022-09-20T16:56:34.874Z,2.60
2022-09-20T16:59:03.675Z,3.50
2022-09-20T17:01:32.718Z,2.80
2022-09-20T17:04:05.397Z,2.00
2022-09-20T17:06:35.256Z,2.60
2022-09-20T17:09:03.822Z,2.57
2022-09-20T17:11:34.745Z,3.70
2022-09-20T17:14:03.256Z,3.10
2022-09-20T17:16:33.959Z,2.90
2022-09-20T17:19:07.351Z,2.93
2022-09-20T17:21:37.641Z,2.97
2022-09-20T17:24:08.661Z,2.80
2022-09-20T17:26:38.793Z,2.80
2022-09-20T17:29:09.834Z,2.90
2022-09-20T17:31:41.638Z,2.93
2022-09-20T17:34:13.141Z,2.47
2022-09-20T17:36:43.934Z,2.63
2022-09-20T17:39:13.517Z,2.67
2022-09-20T17:41:45.404Z,2.60
2022-09-20T17:44:14.935Z,2.93
2022-09-20T17:46:44.922Z,2.50
2022-09-20T17:49:16.593Z,2.43
2022-09-20T17:51:46.397Z,2.93
2022-09-20T17:54:14.856Z,3.33
2022-09-20T17:56:45.018Z,3.93
2022-09-20T17:59:16.151Z,2.87
2022-09-20T18:01:45.819Z,3.10
2022-09-20T18:04:16.121Z,4.70
2022-09-20T18:06:48.735Z,4.90
2022-09-20T18:09:19.341Z,6.07
2022-09-20T18:11:49.971Z,5.50
2022-09-20T18:14:20.461Z,6.37
2022-09-20T18:16:48.967Z,7.57
2022-09-20T18:19:18.805Z,7.80
2022-09-20T18:21:47.219Z,7.30
2022-09-20T18:24:15.559Z,7.37
2022-09-20T18:26:44.635Z,7.00
2022-09-20T18:29:14.533Z,7.40
2022-09-20T18:31:44.734Z,7.20
2022-09-20T18:34:15.438Z,9.03
2022-09-20T18:36:47.828Z,9.13
2022-09-20T18:39:16.099Z,9.77
2022-09-20T18:41:44.885Z,6.60
2022-09-20T18:44:14.877Z,7.33
2022-09-20T18:46:43.483Z,7.00
2022-09-20T18:49:14.793Z,6.27
2022-09-20T18:51:48.444Z,7.33
2022-09-20T18:54:17.711Z,7.00
2022-09-20T18:56:47.357Z,7.17
2022-09-20T18:59:18.126Z,7.43
2022-09-20T19:02:21.838Z,7.33
2022-09-20T19:05:14.723Z,7.47
2022-09-20T19:07:54.004Z,7.40
2022-09-20T19:10:28.303Z,7.23
2022-09-20T19:13:03.805Z,8.20
2022-09-20T19:15:43.912Z,7.30
2022-09-20T19:18:36.487Z,7.63
2022-09-20T19:21:18.902Z,7.23
2022-09-20T19:24:03.499Z,7.20
2022-09-20T19:26:37.966Z,7.63
2022-09-20T19:29:18.083Z,11.40
2022-09-20T19:31:48.991Z,11.30
2022-09-20T19:34:21.523Z,10.13
2022-09-20T19:37:03.473Z,9.53
2022-09-20T19:39:52.549Z,9.03
2022-09-20T19:42:28.690Z,9.27
2022-09-20T19:45:08.158Z,9.93
2022-09-20T19:47:46.677Z,9.90
2022-09-20T19:50:22.965Z,10.50
2022-09-20T19:52:51.735Z,11.30
2022-09-20T19:55:22.152Z,10.90
2022-09-20T19:57:51.149Z,10.83
2022-09-20T20:00:21.553Z,10.33
2022-09-20T20:02:50.149Z,10.67
2022-09-20T20:05:20.454Z,10.47
2022-09-20T20:07:53.575Z,10.13
2022-09-20T20:10:29.592Z,9.33
2022-09-20T20:13:26.121Z,9.67
2022-09-20T20:16:00.649Z,9.53
2022-09-20T20:18:36.093Z,10.30
2022-09-20T20:21:13.399Z,8.23
2022-09-20T20:24:09.006Z,9.00
2022-09-20T20:26:38.822Z,7.97
2022-09-20T20:29:07.074Z,7.47
2022-09-20T20:31:35.872Z,6.90
2022-09-20T20:34:04.137Z,8.20
2022-09-20T20:36:32.291Z,8.13
2022-09-20T20:39:00.430Z,7.90
2022-09-20T20:41:32.132Z,7.07
2022-09-20T20:44:06.102Z,6.70
2022-09-20T20:46:36.081Z,6.90
2022-09-20T20:49:05.022Z,6.60
2022-09-20T20:51:33.590Z,6.30
2022-09-20T20:54:01.722Z,6.20
2022-09-20T20:56:31.191Z,6.37
2022-09-20T20:59:01.491Z,6.70
2022-09-20T21:01:31.486Z,6.93
2022-09-20T21:04:00.943Z,6.93
2022-09-20T21:06:30.722Z,6.70
2022-09-20T21:08:59.587Z,6.70
2022-09-20T21:11:29.634Z,7.13
2022-09-20T21:14:00.239Z,7.63
2022-09-20T21:16:31.050Z,6.90
2022-09-20T21:18:59.758Z,7.67
2022-09-20T21:21:29.883Z,7.63
2022-09-20T21:23:59.210Z,8.17
2022-09-20T21:26:31.896Z,7.77
2022-09-20T21:29:02.145Z,8.30
2022-09-20T21:31:33.577Z,8.60
2022-09-20T21:34:02.569Z,8.37
2022-09-20T21:36:31.633Z,10.90
2022-09-20T21:38:59.822Z,14.00
2022-09-20T21:41:29.756Z,13.67
2022-09-20T21:44:00.111Z,14.80
2022-09-20T21:46:30.558Z,14.20
2022-09-20T21:49:01.864Z,13.90
2022-09-20T21:51:31.026Z,13.13
2022-09-20T21:54:01.337Z,14.10
2022-09-20T21:56:31.444Z,11.67
2022-09-20T21:59:02.096Z,12.07
2022-09-20T22:01:33.601Z,10.67
2022-09-20T22:04:07.019Z,10.17
2022-09-20T22:06:36.838Z,10.43
2022-09-20T22:09:07.397Z,9.43
2022-09-20T22:11:38.855Z,9.10
2022-09-20T22:14:07.913Z,9.00
2022-09-20T22:16:38.225Z,9.17
2022-09-20T22:19:09.693Z,8.00
2022-09-20T22:21:40.149Z,8.70
2022-09-20T22:24:10.417Z,8.97
2022-09-20T22:26:40.255Z,9.20
2022-09-20T22:29:08.731Z,8.03
2022-09-20T22:31:38.915Z,9.10
2022-09-20T22:34:08.726Z,8.43
2022-09-20T22:36:38.835Z,8.60
2022-09-20T22:39:09.627Z,8.53
2022-09-20T22:41:39.009Z,8.00
2022-09-20T22:44:07.182Z,7.87
2022-09-20T22:46:36.028Z,8.23
2022-09-20T22:49:05.763Z,7.67
2022-09-20T22:51:35.503Z,7.13
2022-09-20T22:54:07.329Z,6.97
2022-09-20T22:56:36.331Z,6.23
2022-09-20T22:59:06.745Z,6.70
2022-09-20T23:01:36.441Z,6.60
2022-09-20T23:04:07.611Z,7.30
2022-09-20T23:06:39.075Z,7.20
2022-09-20T23:09:09.432Z,6.60
2022-09-20T23:11:38.411Z,6.67
2022-09-20T23:14:07.205Z,6.80
2022-09-20T23:16:37.589Z,6.50
2022-09-20T23:19:07.919Z,6.23
2022-09-20T23:21:38.563Z,6.57
2022-09-20T23:24:08.722Z,6.40
2022-09-20T23:26:38.836Z,7.43
2022-09-20T23:29:09.290Z,6.53
2022-09-20T23:31:39.005Z,6.90
2022-09-20T23:34:09.216Z,6.40
2022-09-20T23:36:41.579Z,6.70
2022-09-20T23:39:10.962Z,6.43
2022-09-20T23:41:39.720Z,6.60
2022-09-20T23:44:09.794Z,6.80
2022-09-20T23:46:38.640Z,6.20
2022-09-20T23:49:09.245Z,5.87
2022-09-20T23:51:38.837Z,6.40
2022-09-20T23:54:06.974Z,5.90
2022-09-20T23:56:35.841Z,6.33
2022-09-20T23:59:03.966Z,6.17
